sensor_id;sensor_type;location;lat;lon;timestamp;pressure;altitude;pressure_sealevel;temperature;humidity
31585;BME280;18191;51.288;12.390;2022-07-11T00:00:46;48977.00;;;-144.47;73.27
31585;BME280;18191;51.288;12.390;2022-07-11T00:05:37;48965.06;;;-144.47;73.68
31585;BME280;18191;51.288;12.390;2022-07-11T00:10:27;48965.06;;;-144.47;73.67
31585;BME280;18191;51.288;12.390;2022-07-11T00:15:18;48969.06;;;-144.47;73.89
31585;BME280;18191;51.288;12.390;2022-07-11T00:20:08;48984.97;;;-144.47;74.02
31585;BME280;18191;51.288;12.390;2022-07-11T00:24:59;48969.06;;;-144.47;74.62
31585;BME280;18191;51.288;12.390;2022-07-11T00:29:49;48990.94;;;-144.47;75.00
31585;BME280;18191;51.288;12.390;2022-07-11T00:34:42;48961.09;;;-144.47;75.01
31585;BME280;18191;51.288;12.390;2022-07-11T00:39:32;48988.94;;;-144.47;75.61
31585;BME280;18191;51.288;12.390;2022-07-11T00:44:23;48969.06;;;-144.47;75.72
31585;BME280;18191;51.288;12.390;2022-07-11T00:49:13;48992.94;;;-144.47;75.45
31585;BME280;18191;51.288;12.390;2022-07-11T00:54:06;48959.09;;;-144.47;76.07
31585;BME280;18191;51.288;12.390;2022-07-11T00:58:57;48981.00;;;-144.47;77.53
31585;BME280;18191;51.288;12.390;2022-07-11T01:03:49;48961.09;;;-144.47;76.80
31585;BME280;18191;51.288;12.390;2022-07-11T01:08:40;48977.00;;;-144.47;75.96
31585;BME280;18191;51.288;12.390;2022-07-11T01:13:30;49008.84;;;-144.47;75.49
31585;BME280;18191;51.288;12.390;2022-07-11T01:18:21;49000.88;;;-144.47;75.59
31585;BME280;18191;51.288;12.390;2022-07-11T01:23:11;48967.06;;;-144.47;76.33
31585;BME280;18191;51.288;12.390;2022-07-11T01:28:03;48977.00;;;-144.47;75.74
31585;BME280;18191;51.288;12.390;2022-07-11T01:32:55;48988.94;;;-144.47;77.40
31585;BME280;18191;51.288;12.390;2022-07-11T01:37:45;48977.00;;;-144.47;76.29
31585;BME280;18191;51.288;12.390;2022-07-11T01:42:36;48945.19;;;-144.47;77.41
31585;BME280;18191;51.288;12.390;2022-07-11T01:47:26;48953.13;;;-144.47;76.36
31585;BME280;18191;51.288;12.390;2022-07-11T01:52:16;48965.06;;;-144.47;76.40
31585;BME280;18191;51.288;12.390;2022-07-11T01:57:07;48977.00;;;-144.47;76.65
31585;BME280;18191;51.288;12.390;2022-07-11T02:01:59;48965.06;;;-144.47;78.18
31585;BME280;18191;51.288;12.390;2022-07-11T02:06:50;48961.09;;;-144.47;78.79
31585;BME280;18191;51.288;12.390;2022-07-11T02:11:40;48959.09;;;-144.47;78.11
31585;BME280;18191;51.288;12.390;2022-07-11T02:16:30;48965.06;;;-144.47;78.76
31585;BME280;18191;51.288;12.390;2022-07-11T02:21:21;48969.06;;;-144.47;78.25
31585;BME280;18191;51.288;12.390;2022-07-11T02:26:11;48988.94;;;-144.47;78.47
31585;BME280;18191;51.288;12.390;2022-07-11T02:31:01;48977.00;;;-144.47;78.77
31585;BME280;18191;51.288;12.390;2022-07-11T02:35:51;48992.94;;;-144.47;79.02
31585;BME280;18191;51.288;12.390;2022-07-11T02:40:42;48969.06;;;-144.47;79.26
31585;BME280;18191;51.288;12.390;2022-07-11T02:45:34;48973.03;;;-144.47;79.04
31585;BME280;18191;51.288;12.390;2022-07-11T02:50:26;48984.97;;;-144.47;79.77
31585;BME280;18191;51.288;12.390;2022-07-11T02:55:16;48981.00;;;-144.47;79.27
31585;BME280;18191;51.288;12.390;2022-07-11T03:00:17;48953.13;;;-144.47;78.79
31585;BME280;18191;51.288;12.390;2022-07-11T03:05:08;48982.97;;;-144.47;79.61
31585;BME280;18191;51.288;12.390;2022-07-11T03:09:58;48977.00;;;-144.47;79.79
31585;BME280;18191;51.288;12.390;2022-07-11T03:14:49;48977.00;;;-144.47;79.88
31585;BME280;18191;51.288;12.390;2022-07-11T03:19:39;48965.06;;;-144.47;80.08
31585;BME280;18191;51.288;12.390;2022-07-11T03:24:29;48984.97;;;-144.47;79.74
31585;BME280;18191;51.288;12.390;2022-07-11T03:29:20;48961.09;;;-144.47;79.13
31585;BME280;18191;51.288;12.390;2022-07-11T03:34:10;48957.13;;;-144.47;78.08
31585;BME280;18191;51.288;12.390;2022-07-11T03:39:00;48984.97;;;-144.47;77.00
31585;BME280;18191;51.288;12.390;2022-07-11T03:43:51;48951.16;;;-144.47;76.68
31585;BME280;18191;51.288;12.390;2022-07-11T03:48:41;48957.13;;;-144.47;79.50
31585;BME280;18191;51.288;12.390;2022-07-11T03:53:31;48957.13;;;-144.47;79.16
31585;BME280;18191;51.288;12.390;2022-07-11T03:58:22;48961.09;;;-144.47;79.72
31585;BME280;18191;51.288;12.390;2022-07-11T04:03:12;48977.00;;;-144.47;78.96
31585;BME280;18191;51.288;12.390;2022-07-11T04:08:02;48977.00;;;-144.47;79.08
31585;BME280;18191;51.288;12.390;2022-07-11T04:12:53;48965.06;;;-144.47;78.99
31585;BME280;18191;51.288;12.390;2022-07-11T04:17:43;48984.97;;;-144.47;78.36
31585;BME280;18191;51.288;12.390;2022-07-11T04:22:33;48965.06;;;-144.47;78.90
31585;BME280;18191;51.288;12.390;2022-07-11T04:27:23;48981.00;;;-144.47;79.10
31585;BME280;18191;51.288;12.390;2022-07-11T04:32:17;49000.88;;;-144.47;78.66
31585;BME280;18191;51.288;12.390;2022-07-11T04:37:07;49000.88;;;-144.47;78.72
31585;BME280;18191;51.288;12.390;2022-07-11T04:41:58;48988.94;;;-144.47;78.94
31585;BME280;18191;51.288;12.390;2022-07-11T04:46:48;48977.00;;;-144.47;77.82
31585;BME280;18191;51.288;12.390;2022-07-11T04:51:39;48977.00;;;-144.47;77.53
31585;BME280;18191;51.288;12.390;2022-07-11T04:56:29;48951.16;;;-144.47;61.79
31585;BME280;18191;51.288;12.390;2022-07-11T05:01:19;48937.22;;;-144.47;41.62
31585;BME280;18191;51.288;12.390;2022-07-11T05:06:09;48957.13;;;-144.47;37.91
31585;BME280;18191;51.288;12.390;2022-07-11T05:11:00;48945.19;;;-144.47;36.50
31585;BME280;18191;51.288;12.390;2022-07-11T05:15:51;48917.34;;;-144.47;35.44
31585;BME280;18191;51.288;12.390;2022-07-11T05:20:42;48901.41;;;-144.47;35.06
31585;BME280;18191;51.288;12.390;2022-07-11T05:25:32;48965.06;;;-144.47;35.43
31585;BME280;18191;51.288;12.390;2022-07-11T05:30:22;48929.28;;;-144.47;35.94
31585;BME280;18191;51.288;12.390;2022-07-11T05:35:12;48895.44;;;-144.47;34.26
31585;BME280;18191;51.288;12.390;2022-07-11T05:40:03;48905.41;;;-144.47;37.36
31585;BME280;18191;51.288;12.390;2022-07-11T05:44:54;48905.41;;;-144.47;36.25
31585;BME280;18191;51.288;12.390;2022-07-11T05:49:44;48881.53;;;-144.47;35.62
31585;BME280;18191;51.288;12.390;2022-07-11T05:54:35;48909.38;;;-144.47;36.79
31585;BME280;18191;51.288;12.390;2022-07-11T05:59:25;48951.16;;;-144.47;37.11
31585;BME280;18191;51.288;12.390;2022-07-11T06:04:15;48921.31;;;-144.47;37.67
31585;BME280;18191;51.288;12.390;2022-07-11T06:09:06;48895.44;;;-144.47;39.61
31585;BME280;18191;51.288;12.390;2022-07-11T06:13:56;48901.41;;;-144.47;40.22
31585;BME280;18191;51.288;12.390;2022-07-11T06:18:47;48929.28;;;-144.47;40.94
31585;BME280;18191;51.288;12.390;2022-07-11T06:23:37;48933.25;;;-144.47;42.09
31585;BME280;18191;51.288;12.390;2022-07-11T06:28:28;48935.25;;;-144.47;40.59
31585;BME280;18191;51.288;12.390;2022-07-11T06:33:19;48939.22;;;-144.47;42.18
31585;BME280;18191;51.288;12.390;2022-07-11T06:38:10;48953.13;;;-144.47;41.17
31585;BME280;18191;51.288;12.390;2022-07-11T06:43:00;48919.31;;;-144.47;42.37
31585;BME280;18191;51.288;12.390;2022-07-11T06:47:50;48925.28;;;-144.47;40.40
31585;BME280;18191;51.288;12.390;2022-07-11T06:52:42;48925.28;;;-144.47;40.01
31585;BME280;18191;51.288;12.390;2022-07-11T06:57:33;48929.28;;;-144.47;39.22
31585;BME280;18191;51.288;12.390;2022-07-11T07:02:23;48921.31;;;-144.47;39.72
31585;BME280;18191;51.288;12.390;2022-07-11T07:07:18;48899.44;;;-144.47;39.55
31585;BME280;18191;51.288;12.390;2022-07-11T07:12:08;48909.38;;;-144.47;39.71
31585;BME280;18191;51.288;12.390;2022-07-11T07:16:58;48941.19;;;-144.47;39.80
31585;BME280;18191;51.288;12.390;2022-07-11T07:21:48;48965.06;;;-144.47;42.16
31585;BME280;18191;51.288;12.390;2022-07-11T07:26:39;48949.16;;;-144.47;44.83
31585;BME280;18191;51.288;12.390;2022-07-11T07:31:29;48979.00;;;-144.47;43.74
31585;BME280;18191;51.288;12.390;2022-07-11T07:36:19;48921.31;;;-144.47;45.91
31585;BME280;18191;51.288;12.390;2022-07-11T07:41:10;48937.22;;;-144.47;43.50
31585;BME280;18191;51.288;12.390;2022-07-11T07:46:00;48939.22;;;-144.47;40.78
31585;BME280;18191;51.288;12.390;2022-07-11T07:50:51;48981.00;;;-144.47;38.93
31585;BME280;18191;51.288;12.390;2022-07-11T07:55:41;48931.25;;;-144.47;37.82
31585;BME280;18191;51.288;12.390;2022-07-11T08:00:31;48861.63;;;-144.47;40.03
31585;BME280;18191;51.288;12.390;2022-07-11T08:05:40;48939.22;;;-144.47;40.65
31585;BME280;18191;51.288;12.390;2022-07-11T08:10:30;48925.28;;;-144.47;39.85
31585;BME280;18191;51.288;12.390;2022-07-11T08:15:21;48941.19;;;-144.47;39.42
31585;BME280;18191;51.288;12.390;2022-07-11T08:20:11;48929.28;;;-144.47;41.01
31585;BME280;18191;51.288;12.390;2022-07-11T08:25:01;48933.25;;;-144.47;38.88
31585;BME280;18191;51.288;12.390;2022-07-11T08:29:51;48933.25;;;-144.47;38.27
31585;BME280;18191;51.288;12.390;2022-07-11T08:34:42;48925.28;;;-144.47;37.82
31585;BME280;18191;51.288;12.390;2022-07-11T08:39:32;48941.19;;;-144.47;40.56
31585;BME280;18191;51.288;12.390;2022-07-11T08:44:24;48951.16;;;-144.47;39.36
31585;BME280;18191;51.288;12.390;2022-07-11T08:49:15;48943.19;;;-144.47;39.52
31585;BME280;18191;51.288;12.390;2022-07-11T08:54:05;48951.16;;;-144.47;39.29
31585;BME280;18191;51.288;12.390;2022-07-11T08:58:58;48953.13;;;-144.47;39.96
31585;BME280;18191;51.288;12.390;2022-07-11T09:03:49;48913.34;;;-144.47;37.73
31585;BME280;18191;51.288;12.390;2022-07-11T09:08:39;48909.38;;;-144.47;35.69
31585;BME280;18191;51.288;12.390;2022-07-11T09:13:30;48921.31;;;-144.47;34.31
31585;BME280;18191;51.288;12.390;2022-07-11T09:18:35;48921.31;;;-144.47;34.47
31585;BME280;18191;51.288;12.390;2022-07-11T09:23:25;48905.41;;;-144.47;34.27
31585;BME280;18191;51.288;12.390;2022-07-11T09:28:34;48917.34;;;-144.47;33.18
31585;BME280;18191;51.288;12.390;2022-07-11T09:33:25;48927.28;;;-144.47;34.85
31585;BME280;18191;51.288;12.390;2022-07-11T09:38:16;48941.19;;;-144.47;34.33
31585;BME280;18191;51.288;12.390;2022-07-11T09:43:06;48941.19;;;-144.47;36.28
31585;BME280;18191;51.288;12.390;2022-07-11T09:47:58;48935.25;;;-144.47;35.66
31585;BME280;18191;51.288;12.390;2022-07-11T09:57:54;48947.16;;;-144.47;32.63
31585;BME280;18191;51.288;12.390;2022-07-11T10:02:45;48931.25;;;-144.47;31.81
31585;BME280;18191;51.288;12.390;2022-07-11T10:07:35;48897.44;;;-144.47;32.80
31585;BME280;18191;51.288;12.390;2022-07-11T10:12:26;48961.09;;;-144.47;32.44
31585;BME280;18191;51.288;12.390;2022-07-11T10:27:36;48929.28;;;-144.47;33.06
31585;BME280;18191;51.288;12.390;2022-07-11T10:32:29;48889.50;;;-144.47;34.51
31585;BME280;18191;51.288;12.390;2022-07-11T10:37:20;48917.34;;;-144.47;31.92
31585;BME280;18191;51.288;12.390;2022-07-11T10:42:19;48923.31;;;-144.47;31.75
31585;BME280;18191;51.288;12.390;2022-07-11T10:47:30;48913.34;;;-144.47;32.35
31585;BME280;18191;51.288;12.390;2022-07-11T10:52:22;48881.53;;;-144.47;31.50
31585;BME280;18191;51.288;12.390;2022-07-11T10:57:27;48887.50;;;-144.47;33.35
31585;BME280;18191;51.288;12.390;2022-07-11T11:02:19;48941.19;;;-144.47;33.24
31585;BME280;18191;51.288;12.390;2022-07-11T11:07:50;48929.28;;;-144.47;31.92
31585;BME280;18191;51.288;12.390;2022-07-11T11:17:55;48957.13;;;-144.47;32.02
31585;BME280;18191;51.288;12.390;2022-07-11T11:23:09;48927.28;;;-144.47;31.90
31585;BME280;18191;51.288;12.390;2022-07-11T11:28:02;48855.66;;;-144.47;30.43
31585;BME280;18191;51.288;12.390;2022-07-11T11:32:55;48933.25;;;-144.47;30.30
31585;BME280;18191;51.288;12.390;2022-07-11T11:37:46;48889.50;;;-144.47;31.37
31585;BME280;18191;51.288;12.390;2022-07-11T11:42:39;48921.31;;;-144.47;32.32
31585;BME280;18191;51.288;12.390;2022-07-11T11:47:30;48893.47;;;-144.47;32.03
31585;BME280;18191;51.288;12.390;2022-07-11T11:52:20;48899.44;;;-144.47;31.75
31585;BME280;18191;51.288;12.390;2022-07-11T11:57:12;48869.59;;;-144.47;31.46
31585;BME280;18191;51.288;12.390;2022-07-11T12:02:02;48919.31;;;-144.47;31.08
31585;BME280;18191;51.288;12.390;2022-07-11T12:06:52;48913.34;;;-144.47;30.46
31585;BME280;18191;51.288;12.390;2022-07-11T12:11:45;48903.41;;;-144.47;30.57
31585;BME280;18191;51.288;12.390;2022-07-11T12:16:41;48853.69;;;-144.47;31.37
31585;BME280;18191;51.288;12.390;2022-07-11T12:21:31;48921.31;;;-144.47;29.92
31585;BME280;18191;51.288;12.390;2022-07-11T12:26:22;48929.28;;;-144.47;29.55
31585;BME280;18191;51.288;12.390;2022-07-11T12:31:12;48903.41;;;-144.47;28.97
31585;BME280;18191;51.288;12.390;2022-07-11T12:36:02;48889.50;;;-144.47;28.05
31585;BME280;18191;51.288;12.390;2022-07-11T12:40:59;48861.63;;;-144.47;28.21
31585;BME280;18191;51.288;12.390;2022-07-11T12:46:01;48901.41;;;-144.47;28.87
31585;BME280;18191;51.288;12.390;2022-07-11T12:50:52;48879.53;;;-144.47;28.31
31585;BME280;18191;51.288;12.390;2022-07-11T12:55:43;48881.53;;;-144.47;30.90
31585;BME280;18191;51.288;12.390;2022-07-11T13:00:35;48885.50;;;-144.47;27.93
31585;BME280;18191;51.288;12.390;2022-07-11T13:05:46;48881.53;;;-144.47;28.88
31585;BME280;18191;51.288;12.390;2022-07-11T13:10:37;48905.41;;;-144.47;29.14
31585;BME280;18191;51.288;12.390;2022-07-11T13:15:44;48883.53;;;-144.47;28.94
31585;BME280;18191;51.288;12.390;2022-07-11T13:20:36;48881.53;;;-144.47;29.43
31585;BME280;18191;51.288;12.390;2022-07-11T13:25:27;48863.63;;;-144.47;29.26
31585;BME280;18191;51.288;12.390;2022-07-11T13:30:20;48889.50;;;-144.47;27.87
31585;BME280;18191;51.288;12.390;2022-07-11T13:35:13;48893.47;;;-144.47;28.09
31585;BME280;18191;51.288;12.390;2022-07-11T13:40:05;48865.63;;;-144.47;29.53
31585;BME280;18191;51.288;12.390;2022-07-11T13:44:55;48915.34;;;-144.47;28.16
31585;BME280;18191;51.288;12.390;2022-07-11T13:49:46;48877.56;;;-144.47;27.87
31585;BME280;18191;51.288;12.390;2022-07-11T13:54:36;48865.63;;;-144.47;27.92
31585;BME280;18191;51.288;12.390;2022-07-11T13:59:26;48897.44;;;-144.47;27.84
31585;BME280;18191;51.288;12.390;2022-07-11T14:04:16;48849.69;;;-144.47;27.03
31585;BME280;18191;51.288;12.390;2022-07-11T14:09:07;48873.56;;;-144.47;27.23
31585;BME280;18191;51.288;12.390;2022-07-11T14:13:57;48901.41;;;-144.47;28.60
31585;BME280;18191;51.288;12.390;2022-07-11T14:18:47;48889.50;;;-144.47;27.11
31585;BME280;18191;51.288;12.390;2022-07-11T14:23:38;48849.69;;;-144.47;28.24
31585;BME280;18191;51.288;12.390;2022-07-11T14:28:28;48869.59;;;-144.47;27.88
31585;BME280;18191;51.288;12.390;2022-07-11T14:33:18;48869.59;;;-144.47;27.50
31585;BME280;18191;51.288;12.390;2022-07-11T14:38:09;48889.50;;;-144.47;27.36
31585;BME280;18191;51.288;12.390;2022-07-11T14:43:00;48865.63;;;-144.47;27.90
31585;BME280;18191;51.288;12.390;2022-07-11T14:47:50;48845.72;;;-144.47;28.52
31585;BME280;18191;51.288;12.390;2022-07-11T14:52:41;48849.69;;;-144.47;28.27
31585;BME280;18191;51.288;12.390;2022-07-11T14:57:31;48891.47;;;-144.47;27.71
31585;BME280;18191;51.288;12.390;2022-07-11T15:02:21;48857.66;;;-144.47;28.08
31585;BME280;18191;51.288;12.390;2022-07-11T15:07:30;48877.56;;;-144.47;27.39
31585;BME280;18191;51.288;12.390;2022-07-11T15:12:39;48897.44;;;-144.47;27.97
31585;BME280;18191;51.288;12.390;2022-07-11T15:17:31;48857.66;;;-144.47;28.35
31585;BME280;18191;51.288;12.390;2022-07-11T15:22:22;48861.63;;;-144.47;27.26
31585;BME280;18191;51.288;12.390;2022-07-11T15:27:12;48885.50;;;-144.47;27.32
31585;BME280;18191;51.288;12.390;2022-07-11T15:32:03;48895.44;;;-144.47;28.31
31585;BME280;18191;51.288;12.390;2022-07-11T15:36:54;48847.72;;;-144.47;28.81
31585;BME280;18191;51.288;12.390;2022-07-11T15:41:44;48887.50;;;-144.47;29.39
31585;BME280;18191;51.288;12.390;2022-07-11T15:46:34;48897.44;;;-144.47;29.30
31585;BME280;18191;51.288;12.390;2022-07-11T15:51:25;48881.53;;;-144.47;29.79
31585;BME280;18191;51.288;12.390;2022-07-11T15:56:15;48845.72;;;-144.47;29.90
31585;BME280;18191;51.288;12.390;2022-07-11T16:01:05;48863.63;;;-144.47;29.10
31585;BME280;18191;51.288;12.390;2022-07-11T16:05:56;48885.50;;;-144.47;28.56
31585;BME280;18191;51.288;12.390;2022-07-11T16:10:47;48885.50;;;-144.47;29.26
31585;BME280;18191;51.288;12.390;2022-07-11T16:15:37;48861.63;;;-144.47;29.49
31585;BME280;18191;51.288;12.390;2022-07-11T16:20:28;48885.50;;;-144.47;29.48
31585;BME280;18191;51.288;12.390;2022-07-11T16:25:18;48869.59;;;-144.47;28.88
31585;BME280;18191;51.288;12.390;2022-07-11T16:30:09;48869.59;;;-144.47;29.93
31585;BME280;18191;51.288;12.390;2022-07-11T16:34:59;48941.19;;;-144.47;30.17
31585;BME280;18191;51.288;12.390;2022-07-11T16:39:50;48825.84;;;-144.47;29.87
31585;BME280;18191;51.288;12.390;2022-07-11T16:44:59;48865.63;;;-144.47;29.03
31585;BME280;18191;51.288;12.390;2022-07-11T16:49:50;48885.50;;;-144.47;29.41
31585;BME280;18191;51.288;12.390;2022-07-11T16:54:46;48841.75;;;-144.47;28.82
31585;BME280;18191;51.288;12.390;2022-07-11T16:59:37;48861.63;;;-144.47;28.41
31585;BME280;18191;51.288;12.390;2022-07-11T17:04:27;48859.66;;;-144.47;28.05
31585;BME280;18191;51.288;12.390;2022-07-11T17:09:18;48829.81;;;-144.47;28.30
31585;BME280;18191;51.288;12.390;2022-07-11T17:14:08;48901.41;;;-144.47;27.74
31585;BME280;18191;51.288;12.390;2022-07-11T17:18:58;48827.81;;;-144.47;27.65
31585;BME280;18191;51.288;12.390;2022-07-11T17:23:49;48825.84;;;-144.47;26.74
31585;BME280;18191;51.288;12.390;2022-07-11T17:28:40;48849.69;;;-144.47;26.93
31585;BME280;18191;51.288;12.390;2022-07-11T17:33:31;48857.66;;;-144.47;26.62
31585;BME280;18191;51.288;12.390;2022-07-11T17:38:21;48821.84;;;-144.47;27.22
31585;BME280;18191;51.288;12.390;2022-07-11T17:43:12;48843.72;;;-144.47;28.06
31585;BME280;18191;51.288;12.390;2022-07-11T17:48:02;48861.63;;;-144.47;28.52
31585;BME280;18191;51.288;12.390;2022-07-11T17:52:55;48845.72;;;-144.47;29.27
31585;BME280;18191;51.288;12.390;2022-07-11T17:57:46;48861.63;;;-144.47;28.69
31585;BME280;18191;51.288;12.390;2022-07-11T18:02:36;48807.94;;;-144.47;29.06
31585;BME280;18191;51.288;12.390;2022-07-11T18:07:28;48899.44;;;-144.47;28.91
31585;BME280;18191;51.288;12.390;2022-07-11T18:12:20;48893.47;;;-144.47;27.44
31585;BME280;18191;51.288;12.390;2022-07-11T18:17:13;48857.66;;;-144.47;28.00
31585;BME280;18191;51.288;12.390;2022-07-11T18:22:03;48829.81;;;-144.47;29.72
31585;BME280;18191;51.288;12.390;2022-07-11T18:26:54;48861.63;;;-144.47;30.24
31585;BME280;18191;51.288;12.390;2022-07-11T18:31:44;48849.69;;;-144.47;30.50
31585;BME280;18191;51.288;12.390;2022-07-11T18:36:35;48839.75;;;-144.47;31.56
31585;BME280;18191;51.288;12.390;2022-07-11T18:41:25;48853.69;;;-144.47;32.26
31585;BME280;18191;51.288;12.390;2022-07-11T18:46:16;48833.78;;;-144.47;33.49
31585;BME280;18191;51.288;12.390;2022-07-11T18:51:06;48889.50;;;-144.47;34.82
31585;BME280;18191;51.288;12.390;2022-07-11T18:55:57;48857.66;;;-144.47;35.95
31585;BME280;18191;51.288;12.390;2022-07-11T19:00:47;48863.63;;;-144.47;36.74
31585;BME280;18191;51.288;12.390;2022-07-11T19:05:37;48849.69;;;-144.47;38.36
31585;BME280;18191;51.288;12.390;2022-07-11T19:10:28;48879.53;;;-144.47;38.68
31585;BME280;18191;51.288;12.390;2022-07-11T19:15:19;48865.63;;;-144.47;39.98
31585;BME280;18191;51.288;12.390;2022-07-11T19:20:09;48865.63;;;-144.47;40.37
31585;BME280;18191;51.288;12.390;2022-07-11T19:25:00;48893.47;;;-144.47;40.31
31585;BME280;18191;51.288;12.390;2022-07-11T19:29:50;48909.38;;;-144.47;40.51
31585;BME280;18191;51.288;12.390;2022-07-11T19:34:41;48881.53;;;-144.47;40.71
31585;BME280;18191;51.288;12.390;2022-07-11T19:39:31;48913.34;;;-144.47;40.47
31585;BME280;18191;51.288;12.390;2022-07-11T19:44:21;48873.56;;;-144.47;41.22
31585;BME280;18191;51.288;12.390;2022-07-11T19:49:12;48885.50;;;-144.47;41.25
31585;BME280;18191;51.288;12.390;2022-07-11T19:54:02;48913.34;;;-144.47;42.47
31585;BME280;18191;51.288;12.390;2022-07-11T19:59:13;48883.53;;;-144.47;42.97
31585;BME280;18191;51.288;12.390;2022-07-11T20:04:03;48865.63;;;-144.47;43.74
31585;BME280;18191;51.288;12.390;2022-07-11T20:08:54;48901.41;;;-144.47;44.84
31585;BME280;18191;51.288;12.390;2022-07-11T20:13:44;48893.47;;;-144.47;46.59
31585;BME280;18191;51.288;12.390;2022-07-11T20:18:36;48941.19;;;-144.47;47.21
31585;BME280;18191;51.288;12.390;2022-07-11T20:23:28;48873.56;;;-144.47;48.01
31585;BME280;18191;51.288;12.390;2022-07-11T20:28:18;48929.28;;;-144.47;48.37
31585;BME280;18191;51.288;12.390;2022-07-11T20:33:09;48905.41;;;-144.47;48.35
31585;BME280;18191;51.288;12.390;2022-07-11T20:38:00;48925.28;;;-144.47;48.76
31585;BME280;18191;51.288;12.390;2022-07-11T20:42:50;48881.53;;;-144.47;49.43
31585;BME280;18191;51.288;12.390;2022-07-11T20:47:40;48905.41;;;-144.47;49.90
31585;BME280;18191;51.288;12.390;2022-07-11T20:52:31;48881.53;;;-144.47;47.45
31585;BME280;18191;51.288;12.390;2022-07-11T20:57:21;48857.66;;;-144.47;48.17
31585;BME280;18191;51.288;12.390;2022-07-11T21:02:11;48893.47;;;-144.47;48.99
31585;BME280;18191;51.288;12.390;2022-07-11T21:07:01;48881.53;;;-144.47;49.30
31585;BME280;18191;51.288;12.390;2022-07-11T21:11:52;48877.56;;;-144.47;50.31
31585;BME280;18191;51.288;12.390;2022-07-11T21:16:42;48877.56;;;-144.47;51.16
31585;BME280;18191;51.288;12.390;2022-07-11T21:21:32;48879.53;;;-144.47;52.50
31585;BME280;18191;51.288;12.390;2022-07-11T21:26:22;48905.41;;;-144.47;53.48
31585;BME280;18191;51.288;12.390;2022-07-11T21:31:13;48889.50;;;-144.47;54.88
31585;BME280;18191;51.288;12.390;2022-07-11T21:36:04;48881.53;;;-144.47;56.16
31585;BME280;18191;51.288;12.390;2022-07-11T21:40:54;48911.38;;;-144.47;57.44
31585;BME280;18191;51.288;12.390;2022-07-11T21:45:44;48905.41;;;-144.47;58.19
31585;BME280;18191;51.288;12.390;2022-07-11T21:50:35;48893.47;;;-144.47;57.39
31585;BME280;18191;51.288;12.390;2022-07-11T21:55:25;48899.44;;;-144.47;58.62
31585;BME280;18191;51.288;12.390;2022-07-11T22:00:15;48901.41;;;-144.47;60.35
31585;BME280;18191;51.288;12.390;2022-07-11T22:05:06;48873.56;;;-144.47;60.86
31585;BME280;18191;51.288;12.390;2022-07-11T22:09:58;48913.34;;;-144.47;61.69
31585;BME280;18191;51.288;12.390;2022-07-11T22:14:48;48897.44;;;-144.47;62.17
31585;BME280;18191;51.288;12.390;2022-07-11T22:19:38;48881.53;;;-144.47;63.21
31585;BME280;18191;51.288;12.390;2022-07-11T22:24:29;48905.41;;;-144.47;64.25
31585;BME280;18191;51.288;12.390;2022-07-11T22:29:19;48909.38;;;-144.47;64.53
31585;BME280;18191;51.288;12.390;2022-07-11T22:34:09;48941.19;;;-144.47;64.84
31585;BME280;18191;51.288;12.390;2022-07-11T22:38:59;48901.41;;;-144.47;65.62
31585;BME280;18191;51.288;12.390;2022-07-11T22:43:50;48897.44;;;-144.47;66.46
31585;BME280;18191;51.288;12.390;2022-07-11T22:48:40;48899.44;;;-144.47;66.89
31585;BME280;18191;51.288;12.390;2022-07-11T22:53:30;48893.47;;;-144.47;68.02
31585;BME280;18191;51.288;12.390;2022-07-11T22:58:20;48917.34;;;-144.47;68.24
31585;BME280;18191;51.288;12.390;2022-07-11T23:03:11;48939.22;;;-144.47;68.52
31585;BME280;18191;51.288;12.390;2022-07-11T23:08:01;48907.38;;;-144.47;68.88
31585;BME280;18191;51.288;12.390;2022-07-11T23:12:52;48925.28;;;-144.47;69.95
31585;BME280;18191;51.288;12.390;2022-07-11T23:17:42;48925.28;;;-144.47;70.17
31585;BME280;18191;51.288;12.390;2022-07-11T23:22:32;48905.41;;;-144.47;70.37
31585;BME280;18191;51.288;12.390;2022-07-11T23:27:22;48877.56;;;-144.47;70.97
31585;BME280;18191;51.288;12.390;2022-07-11T23:32:14;48937.22;;;-144.47;71.85
31585;BME280;18191;51.288;12.390;2022-07-11T23:37:04;48929.28;;;-144.47;72.45
31585;BME280;18191;51.288;12.390;2022-07-11T23:41:54;48913.34;;;-144.47;73.65
31585;BME280;18191;51.288;12.390;2022-07-11T23:46:45;48893.47;;;-144.47;73.38
31585;BME280;18191;51.288;12.390;2022-07-11T23:51:35;48953.13;;;-144.47;73.85
31585;BME280;18191;51.288;12.390;2022-07-11T23:56:25;48921.31;;;-144.47;74.79
